createdAt,value
2019-04-23T00:01:29.500Z,5.58
2019-04-23T00:03:58.214Z,5.80
2019-04-23T00:06:41.033Z,5.40
2019-04-23T00:09:09.110Z,5.42
2019-04-23T00:11:35.625Z,5.95
2019-04-23T00:14:06.015Z,5.92
2019-04-23T00:16:59.196Z,5.90
2019-04-23T00:19:24.786Z,5.90
2019-04-23T00:22:09.140Z,5.58
2019-04-23T00:25:19.095Z,5.15
2019-04-23T00:29:52.683Z,5.90
2019-04-23T00:32:23.737Z,4.97
2019-04-23T00:35:01.054Z,5.40
2019-04-23T00:37:25.686Z,5.83
2019-04-23T00:42:23.957Z,5.60
2019-04-23T00:44:57.326Z,5.37
2019-04-23T00:47:43.166Z,5.22
2019-04-23T00:50:30.596Z,5.50
2019-04-23T00:52:38.805Z,5.53
2019-04-23T00:57:48.759Z,5.47
2019-04-23T01:00:23.794Z,5.08
2019-04-23T01:02:49.226Z,5.60
2019-04-23T01:05:16.290Z,6.03
2019-04-23T01:07:44.512Z,5.12
2019-04-23T01:10:25.479Z,5.33
2019-04-23T01:12:51.547Z,5.15
2019-04-23T01:15:28.844Z,5.80
2019-04-23T01:18:02.160Z,5.30
2019-04-23T01:20:36.806Z,5.83
2019-04-23T01:22:44.264Z,5.03
2019-04-23T01:25:34.352Z,5.78
2019-04-23T01:28:22.740Z,5.62
2019-04-23T01:30:57.118Z,5.42
2019-04-23T01:33:31.341Z,5.50
2019-04-23T01:36:05.894Z,5.15
2019-04-23T01:38:32.541Z,5.40
2019-04-23T01:40:55.881Z,5.50
2019-04-23T01:43:26.425Z,5.37
2019-04-23T01:45:54.663Z,5.45
2019-04-23T01:48:26.168Z,4.87
2019-04-23T01:56:02.502Z,5.30
2019-04-23T02:00:58.006Z,5.30
2019-04-23T02:03:38.482Z,6.17
2019-04-23T02:06:03.096Z,5.10
2019-04-23T02:08:32.328Z,5.30
2019-04-23T02:11:02.815Z,6.10
2019-04-23T02:13:40.432Z,5.70
2019-04-23T02:18:36.013Z,5.12
2019-04-23T02:21:12.072Z,5.55
2019-04-23T02:24:05.031Z,5.17
2019-04-23T02:26:36.801Z,5.30
2019-04-23T02:41:34.733Z,5.28
2019-04-23T02:44:13.159Z,5.30
2019-04-23T02:46:31.333Z,6.00
2019-04-23T02:54:31.344Z,6.30
2019-04-23T02:56:49.843Z,5.87
2019-04-23T02:59:21.387Z,5.35
2019-04-23T03:06:50.064Z,4.78
2019-04-23T03:09:29.719Z,5.50
2019-04-23T03:11:47.939Z,5.60
2019-04-23T03:14:15.885Z,5.03
2019-04-23T03:22:15.727Z,5.78
2019-04-23T03:25:05.374Z,5.42
2019-04-23T03:27:29.195Z,5.30
2019-04-23T03:30:52.540Z,5.35
2019-04-23T03:40:06.020Z,6.42
2019-04-23T03:42:38.640Z,5.70
2019-04-23T03:47:31.980Z,5.58
2019-04-23T03:55:29.809Z,5.85
2019-04-23T03:57:43.358Z,6.28
2019-04-23T04:05:10.696Z,5.37
2019-04-23T04:07:48.730Z,4.90
2019-04-23T04:10:12.592Z,5.30
2019-04-23T04:15:18.272Z,5.40
2019-04-23T04:17:40.206Z,5.83
2019-04-23T04:20:15.269Z,5.33
2019-04-23T04:22:59.226Z,5.58
2019-04-23T04:25:28.638Z,5.87
2019-04-23T04:27:58.948Z,5.53
2019-04-23T04:30:24.728Z,6.00
2019-04-23T04:33:00.434Z,5.70
2019-04-23T04:38:01.071Z,6.05
2019-04-23T04:43:04.687Z,6.65
2019-04-23T04:45:30.485Z,6.35
2019-04-23T04:47:44.527Z,6.97
2019-04-23T04:50:19.422Z,6.03
2019-04-23T05:00:39.917Z,6.50
2019-04-23T05:03:10.753Z,6.00
2019-04-23T05:07:54.371Z,6.10
2019-04-23T05:10:38.351Z,5.95
2019-04-23T05:13:13.906Z,5.45
2019-04-23T05:15:23.852Z,6.72
2019-04-23T05:18:46.725Z,6.17
2019-04-23T05:21:03.617Z,6.20
2019-04-23T05:23:58.037Z,6.17
2019-04-23T05:26:20.919Z,6.40
2019-04-23T05:28:57.166Z,6.72
2019-04-23T05:31:20.279Z,6.40
2019-04-23T05:33:47.899Z,6.60
2019-04-23T05:39:12.247Z,6.35
2019-04-23T05:46:52.145Z,6.58
2019-04-23T05:49:14.270Z,6.80
2019-04-23T05:52:02.242Z,6.30
2019-04-23T05:54:37.521Z,6.37
2019-04-23T05:59:29.653Z,6.87
2019-04-23T10:22:13.318Z,3.00
2019-04-23T10:24:43.654Z,3.15
2019-04-23T10:27:52.960Z,3.30
2019-04-23T10:30:19.333Z,2.75
2019-04-23T10:37:54.703Z,3.10
2019-04-23T10:44:02.990Z,3.62
2019-04-23T10:47:23.464Z,2.70
2019-04-23T10:59:17.007Z,2.52
2019-04-23T11:01:46.734Z,6.05
2019-04-23T11:06:45.361Z,2.80
2019-04-23T11:09:27.227Z,2.35
2019-04-23T11:11:52.610Z,3.20
2019-04-23T11:14:25.447Z,2.37
2019-04-23T11:16:59.772Z,2.80
2019-04-23T11:19:32.619Z,3.27
2019-04-23T11:22:11.303Z,3.55
2019-04-23T11:24:36.248Z,3.37
2019-04-23T11:26:55.797Z,3.35
2019-04-23T11:29:34.115Z,3.30
2019-04-23T11:32:06.000Z,3.17
2019-04-23T11:34:52.479Z,3.80
2019-04-23T11:37:03.811Z,3.80
2019-04-23T11:39:46.090Z,3.25
2019-04-23T11:42:05.156Z,4.15
2019-04-23T11:44:37.047Z,4.28
2019-04-23T11:47:42.583Z,4.53
2019-04-23T11:49:53.283Z,4.25
2019-04-23T11:52:11.606Z,4.10
2019-04-23T12:02:23.444Z,3.83
2019-04-23T12:05:21.561Z,3.95
2019-04-23T12:07:50.265Z,4.00
2019-04-23T12:10:40.741Z,4.05
2019-04-23T12:13:03.121Z,3.98
2019-04-23T12:25:45.771Z,3.42
2019-04-23T12:28:06.682Z,3.80
2019-04-23T12:33:10.524Z,2.50
2019-04-23T12:35:42.297Z,2.33
2019-04-23T12:38:25.413Z,2.52
2019-04-23T12:40:43.796Z,2.30
2019-04-23T12:43:14.582Z,2.10
2019-04-23T12:48:31.393Z,1.77
2019-04-23T12:51:01.265Z,1.85
2019-04-23T12:58:26.252Z,1.62
2019-04-23T13:00:47.805Z,1.40
2019-04-23T13:03:25.419Z,1.85
2019-04-23T13:05:43.482Z,1.40
2019-04-23T13:08:33.632Z,1.67
2019-04-23T13:10:49.596Z,1.20
2019-04-23T13:15:53.167Z,1.50
2019-04-23T13:18:31.223Z,1.30
2019-04-23T13:21:01.555Z,2.27
2019-04-23T13:23:29.946Z,1.37
2019-04-23T13:26:07.064Z,1.57
2019-04-23T13:29:04.963Z,1.40
2019-04-23T13:33:45.406Z,1.90
2019-04-23T13:43:52.729Z,1.32
2019-04-23T13:46:14.945Z,1.12
2019-04-23T13:48:49.335Z,1.10
2019-04-23T13:54:09.716Z,1.40
2019-04-23T13:56:40.761Z,1.15
2019-04-23T13:58:59.958Z,1.00
2019-04-23T14:03:57.682Z,1.45
2019-04-23T14:09:19.974Z,1.10
2019-04-23T14:11:29.469Z,1.22
2019-04-23T14:14:25.240Z,1.15
2019-04-23T14:16:39.521Z,1.15
2019-04-23T14:26:34.978Z,1.30
2019-04-23T14:29:04.434Z,1.20
2019-04-23T14:31:37.086Z,1.37
2019-04-23T14:36:43.142Z,1.37
2019-04-23T14:39:16.221Z,1.35
2019-04-23T14:41:45.000Z,1.00
2019-04-23T14:44:19.861Z,1.60
2019-04-23T14:46:58.365Z,1.42
2019-04-23T14:52:10.470Z,1.32
2019-04-23T14:59:41.286Z,1.20
2019-04-23T15:02:13.690Z,1.80
2019-04-23T15:04:39.425Z,1.60
2019-04-23T15:07:17.049Z,1.90
2019-04-23T15:15:10.459Z,1.70
2019-04-23T15:17:20.480Z,1.70
2019-04-23T15:27:38.565Z,1.72
2019-04-23T15:29:48.461Z,1.60
2019-04-23T15:32:38.132Z,1.50
2019-04-23T15:35:05.346Z,1.62
2019-04-23T15:37:41.511Z,1.42
2019-04-23T15:40:02.428Z,2.02
2019-04-23T15:42:53.793Z,1.85
2019-04-23T15:45:01.365Z,1.82
2019-04-23T15:47:35.990Z,1.72
2019-04-23T15:50:10.265Z,1.72
2019-04-23T15:55:01.534Z,2.27
2019-04-23T15:57:54.595Z,2.05
2019-04-23T16:00:10.731Z,2.27
2019-04-23T16:02:09.702Z,2.47
2019-04-23T16:04:39.915Z,2.50
2019-04-23T16:07:10.544Z,2.00
2019-04-23T16:10:09.016Z,2.22
2019-04-23T16:12:41.592Z,2.02
2019-04-23T16:15:11.760Z,2.60
2019-04-23T16:17:41.402Z,2.52
2019-04-23T16:22:39.780Z,2.60
2019-04-23T16:27:50.417Z,2.60
2019-04-23T16:30:19.124Z,2.60
2019-04-23T16:33:08.721Z,2.55
2019-04-23T16:35:51.118Z,2.50
2019-04-23T16:40:46.088Z,3.05
2019-04-23T16:43:13.213Z,3.85
2019-04-23T16:48:35.283Z,4.05
2019-04-23T16:53:21.619Z,4.40
2019-04-23T16:55:59.964Z,4.50
2019-04-23T16:58:27.264Z,4.47
2019-04-23T17:01:05.961Z,5.58
2019-04-23T17:03:28.252Z,5.10
2019-04-23T17:05:59.398Z,5.10
2019-04-23T17:11:00.131Z,5.42
2019-04-23T17:13:30.907Z,5.28
2019-04-23T17:18:31.671Z,5.45
2019-04-23T17:21:00.089Z,5.15
2019-04-23T17:26:04.096Z,5.28
2019-04-23T17:36:30.600Z,5.12
2019-04-23T17:39:16.358Z,4.83
2019-04-23T17:42:24.380Z,4.80
2019-04-23T17:45:07.387Z,4.58
2019-04-23T17:47:43.821Z,4.42
2019-04-23T17:50:14.323Z,4.45
2019-04-23T17:52:47.352Z,4.60
2019-04-23T17:57:43.696Z,4.47
2019-04-23T18:00:25.350Z,4.40
2019-04-23T18:02:55.504Z,5.17
2019-04-23T18:05:27.487Z,5.15
2019-04-23T18:07:50.565Z,5.15
2019-04-23T18:12:53.762Z,5.47
2019-04-23T18:15:15.455Z,5.47
2019-04-23T18:21:00.727Z,5.90
2019-04-23T18:23:14.880Z,5.70
2019-04-23T18:25:59.596Z,6.15
2019-04-23T18:28:20.037Z,6.00
2019-04-23T18:31:11.052Z,5.30
2019-04-23T18:36:11.612Z,6.30
2019-04-23T18:38:46.139Z,6.37
2019-04-23T18:43:47.635Z,6.17
2019-04-23T18:46:25.439Z,6.65
2019-04-23T18:48:51.899Z,6.35
2019-04-23T18:51:12.489Z,5.58
2019-04-23T18:53:48.167Z,6.28
2019-04-23T18:56:31.367Z,5.85
2019-04-23T18:59:02.493Z,5.60
2019-04-23T19:01:28.082Z,5.70
2019-04-23T19:04:11.238Z,6.33
2019-04-23T19:06:45.341Z,5.15
2019-04-23T19:10:04.278Z,5.22
2019-04-23T19:14:56.316Z,4.80
2019-04-23T19:19:55.355Z,5.40
2019-04-23T19:22:28.812Z,5.22
2019-04-23T19:24:51.892Z,5.30
2019-04-23T19:30:26.452Z,5.72
2019-04-23T19:32:59.526Z,4.60
2019-04-23T19:38:32.808Z,5.33
2019-04-23T19:40:33.624Z,5.20
2019-04-23T19:43:00.862Z,5.12
2019-04-23T19:45:20.558Z,5.37
2019-04-23T19:47:58.726Z,4.90
2019-04-23T19:50:34.398Z,6.17
2019-04-23T19:55:22.397Z,5.12
2019-04-23T19:58:05.003Z,5.50
2019-04-23T20:00:28.845Z,5.78
2019-04-23T20:03:12.551Z,6.42
2019-04-23T20:05:31.155Z,5.53
2019-04-23T20:08:04.509Z,5.40
2019-04-23T20:10:33.188Z,5.30
2019-04-23T20:13:02.088Z,5.78
2019-04-23T20:15:41.047Z,5.37
2019-04-23T20:18:21.916Z,5.40
2019-04-23T20:23:14.026Z,5.55
2019-04-23T20:26:03.258Z,4.70
2019-04-23T20:28:24.612Z,5.65
2019-04-23T20:31:05.417Z,4.92
2019-04-23T20:36:24.126Z,5.53
2019-04-23T20:38:56.443Z,5.62
2019-04-23T20:41:28.419Z,5.40
2019-04-23T20:44:07.425Z,5.15
2019-04-23T20:46:25.638Z,5.85
2019-04-23T20:51:24.529Z,5.92
2019-04-23T20:53:59.793Z,5.30
2019-04-23T20:56:25.353Z,6.08
2019-04-23T21:06:39.118Z,5.25
2019-04-23T21:09:20.191Z,5.95
2019-04-23T21:11:40.659Z,5.25
2019-04-23T21:14:15.327Z,5.53
2019-04-23T21:16:36.050Z,5.17
2019-04-23T21:19:04.957Z,5.45
2019-04-23T21:21:55.168Z,5.58
2019-04-23T21:24:29.353Z,5.30
2019-04-23T21:27:01.641Z,5.35
2019-04-23T21:31:59.745Z,5.65
2019-04-23T21:34:28.764Z,4.83
2019-04-23T21:36:58.660Z,5.35
2019-04-23T21:40:14.064Z,5.33
2019-04-23T21:42:34.534Z,4.35
2019-04-23T21:44:59.238Z,5.00
2019-04-23T21:47:40.258Z,5.40
2019-04-23T21:52:36.410Z,5.60
2019-04-23T21:57:46.324Z,5.10
2019-04-23T22:00:02.508Z,5.58
2019-04-23T22:02:55.827Z,5.30
2019-04-23T22:07:44.513Z,5.12
2019-04-23T22:12:46.937Z,6.08
2019-04-23T22:15:07.220Z,5.53
2019-04-23T22:17:39.659Z,4.80
2019-04-23T22:20:17.670Z,5.67
2019-04-23T22:23:05.459Z,4.87
2019-04-23T22:25:03.008Z,5.22
2019-04-23T22:27:52.523Z,4.83
2019-04-23T22:30:16.386Z,5.25
2019-04-23T22:33:07.569Z,4.92
2019-04-23T22:35:14.029Z,5.08
2019-04-23T22:38:02.598Z,5.10
2019-04-23T22:40:14.901Z,5.30
2019-04-23T22:45:21.059Z,5.55
2019-04-23T22:50:18.893Z,5.67
2019-04-23T22:52:53.963Z,4.62
2019-04-23T22:55:40.494Z,5.33
2019-04-23T23:00:16.487Z,5.47
2019-04-23T23:03:29.443Z,5.50
2019-04-23T23:08:31.212Z,5.12
2019-04-23T23:13:42.144Z,5.75
2019-04-23T23:16:16.726Z,5.90
2019-04-23T23:18:34.093Z,5.60
2019-04-23T23:21:07.935Z,6.10
2019-04-23T23:23:29.791Z,5.30
2019-04-23T23:26:09.857Z,5.08
2019-04-23T23:31:06.978Z,5.83
2019-04-23T23:33:42.910Z,5.37
2019-04-23T23:36:12.435Z,6.03
2019-04-23T23:38:51.064Z,5.30
2019-04-23T23:41:25.990Z,5.50
2019-04-23T23:46:20.843Z,5.30
2019-04-23T23:48:42.355Z,5.92
2019-04-23T23:51:30.885Z,5.37
2019-04-23T23:53:58.599Z,5.28
2019-04-23T23:56:30.680Z,5.30
